sensor_id;sensor_type;location;lat;lon;timestamp;temperature;humidity
28837;DHT22;50669;50.982;11.022;2023-02-15T00:01:41;0.90;99.90
28837;DHT22;50669;50.982;11.022;2023-02-15T00:04:12;0.90;99.90
28837;DHT22;50669;50.982;11.022;2023-02-15T00:06:38;0.90;99.90
28837;DHT22;50669;50.982;11.022;2023-02-15T00:09:04;0.90;99.90
28837;DHT22;50669;50.982;11.022;2023-02-15T00:11:30;0.90;99.90
28837;DHT22;50669;50.982;11.022;2023-02-15T00:16:42;0.90;99.90
28837;DHT22;50669;50.982;11.022;2023-02-15T00:19:09;0.80;99.90
28837;DHT22;50669;50.982;11.022;2023-02-15T00:21:36;0.70;99.90
28837;DHT22;50669;50.982;11.022;2023-02-15T00:24:04;0.60;99.90
28837;DHT22;50669;50.982;11.022;2023-02-15T00:26:33;0.50;99.90
28837;DHT22;50669;50.982;11.022;2023-02-15T00:28:59;0.50;99.90
28837;DHT22;50669;50.982;11.022;2023-02-15T00:31:29;0.40;99.90
28837;DHT22;50669;50.982;11.022;2023-02-15T00:34:03;0.40;99.90
28837;DHT22;50669;50.982;11.022;2023-02-15T00:36:29;0.30;99.90
28837;DHT22;50669;50.982;11.022;2023-02-15T00:38:57;0.30;99.90
28837;DHT22;50669;50.982;11.022;2023-02-15T00:41:22;0.20;99.90
28837;DHT22;50669;50.982;11.022;2023-02-15T00:43:48;0.20;99.90
28837;DHT22;50669;50.982;11.022;2023-02-15T00:46:14;0.10;99.90
28837;DHT22;50669;50.982;11.022;2023-02-15T00:48:39;0.10;99.90
28837;DHT22;50669;50.982;11.022;2023-02-15T00:51:05;0.00;99.90
28837;DHT22;50669;50.982;11.022;2023-02-15T00:53:33;0.00;99.90
28837;DHT22;50669;50.982;11.022;2023-02-15T00:55:59;-0.10;99.90
28837;DHT22;50669;50.982;11.022;2023-02-15T00:58:25;-0.10;99.90
28837;DHT22;50669;50.982;11.022;2023-02-15T01:00:51;-0.10;99.90
28837;DHT22;50669;50.982;11.022;2023-02-15T01:03:18;-0.10;99.90
28837;DHT22;50669;50.982;11.022;2023-02-15T01:05:47;-0.20;99.90
28837;DHT22;50669;50.982;11.022;2023-02-15T01:08:13;-0.20;99.90
28837;DHT22;50669;50.982;11.022;2023-02-15T01:10:42;-0.20;99.90
28837;DHT22;50669;50.982;11.022;2023-02-15T01:13:09;-0.10;99.90
28837;DHT22;50669;50.982;11.022;2023-02-15T01:15:35;-0.20;99.90
28837;DHT22;50669;50.982;11.022;2023-02-15T01:18:01;-0.10;99.90
28837;DHT22;50669;50.982;11.022;2023-02-15T01:20:28;-0.20;99.90
28837;DHT22;50669;50.982;11.022;2023-02-15T01:22:56;-0.20;99.90
28837;DHT22;50669;50.982;11.022;2023-02-15T01:25:23;-0.20;99.90
28837;DHT22;50669;50.982;11.022;2023-02-15T01:27:49;-0.20;99.90
28837;DHT22;50669;50.982;11.022;2023-02-15T01:30:17;-0.20;99.90
28837;DHT22;50669;50.982;11.022;2023-02-15T01:32:43;-0.30;99.90
28837;DHT22;50669;50.982;11.022;2023-02-15T01:35:10;-0.30;99.90
28837;DHT22;50669;50.982;11.022;2023-02-15T01:37:36;-0.30;99.90
28837;DHT22;50669;50.982;11.022;2023-02-15T01:40:04;-0.40;99.90
28837;DHT22;50669;50.982;11.022;2023-02-15T01:42:33;-0.40;99.90
28837;DHT22;50669;50.982;11.022;2023-02-15T01:47:36;-0.50;99.90
28837;DHT22;50669;50.982;11.022;2023-02-15T01:50:24;-0.50;99.90
28837;DHT22;50669;50.982;11.022;2023-02-15T01:55:24;-0.60;99.90
28837;DHT22;50669;50.982;11.022;2023-02-15T01:57:51;-0.60;99.90
28837;DHT22;50669;50.982;11.022;2023-02-15T02:00:17;-0.50;99.90
28837;DHT22;50669;50.982;11.022;2023-02-15T02:02:45;-0.60;99.90
28837;DHT22;50669;50.982;11.022;2023-02-15T02:05:12;-0.70;99.90
28837;DHT22;50669;50.982;11.022;2023-02-15T02:07:41;-0.70;99.90
28837;DHT22;50669;50.982;11.022;2023-02-15T02:10:12;-0.70;99.90
28837;DHT22;50669;50.982;11.022;2023-02-15T02:12:38;-0.80;99.90
28837;DHT22;50669;50.982;11.022;2023-02-15T02:15:06;-0.80;99.90
28837;DHT22;50669;50.982;11.022;2023-02-15T02:17:56;-0.90;99.90
28837;DHT22;50669;50.982;11.022;2023-02-15T02:23:22;-1.10;99.90
28837;DHT22;50669;50.982;11.022;2023-02-15T02:44:47;-1.40;99.90
28837;DHT22;50669;50.982;11.022;2023-02-15T02:47:45;-1.40;99.90
28837;DHT22;50669;50.982;11.022;2023-02-15T02:50:16;-1.40;99.90
28837;DHT22;50669;50.982;11.022;2023-02-15T02:52:45;-1.50;99.90
28837;DHT22;50669;50.982;11.022;2023-02-15T02:55:21;-1.40;99.90
28837;DHT22;50669;50.982;11.022;2023-02-15T02:57:59;-1.40;99.90
28837;DHT22;50669;50.982;11.022;2023-02-15T03:00:29;-1.40;99.90
28837;DHT22;50669;50.982;11.022;2023-02-15T03:03:06;-1.40;99.90
28837;DHT22;50669;50.982;11.022;2023-02-15T03:05:39;-1.50;99.90
28837;DHT22;50669;50.982;11.022;2023-02-15T03:08:07;-1.50;99.90
28837;DHT22;50669;50.982;11.022;2023-02-15T03:10:37;-1.50;99.90
28837;DHT22;50669;50.982;11.022;2023-02-15T03:13:03;-1.60;99.90
28837;DHT22;50669;50.982;11.022;2023-02-15T03:15:38;-1.50;99.90
28837;DHT22;50669;50.982;11.022;2023-02-15T03:18:28;-1.50;99.90
28837;DHT22;50669;50.982;11.022;2023-02-15T03:20:55;-1.60;99.90
28837;DHT22;50669;50.982;11.022;2023-02-15T03:23:23;-1.70;99.90
28837;DHT22;50669;50.982;11.022;2023-02-15T03:26:00;-1.70;99.90
28837;DHT22;50669;50.982;11.022;2023-02-15T03:28:41;-1.80;99.90
28837;DHT22;50669;50.982;11.022;2023-02-15T03:31:10;-1.80;99.90
28837;DHT22;50669;50.982;11.022;2023-02-15T03:33:43;-1.90;99.90
28837;DHT22;50669;50.982;11.022;2023-02-15T03:36:22;-1.90;99.90
28837;DHT22;50669;50.982;11.022;2023-02-15T03:41:30;-2.00;99.90
28837;DHT22;50669;50.982;11.022;2023-02-15T03:44:02;-2.00;99.90
28837;DHT22;50669;50.982;11.022;2023-02-15T03:47:15;-2.00;99.90
28837;DHT22;50669;50.982;11.022;2023-02-15T03:51:59;-2.00;99.90
28837;DHT22;50669;50.982;11.022;2023-02-15T03:54:33;-2.00;99.90
28837;DHT22;50669;50.982;11.022;2023-02-15T04:00:06;-1.90;99.90
28837;DHT22;50669;50.982;11.022;2023-02-15T04:03:03;-1.90;99.90
28837;DHT22;50669;50.982;11.022;2023-02-15T04:05:31;-1.90;99.90
28837;DHT22;50669;50.982;11.022;2023-02-15T04:07:57;-1.90;99.90
28837;DHT22;50669;50.982;11.022;2023-02-15T04:10:22;-1.90;99.90
28837;DHT22;50669;50.982;11.022;2023-02-15T04:13:06;-1.90;99.90
28837;DHT22;50669;50.982;11.022;2023-02-15T04:15:34;-1.80;99.90
28837;DHT22;50669;50.982;11.022;2023-02-15T04:18:19;-1.80;99.90
28837;DHT22;50669;50.982;11.022;2023-02-15T04:20:45;-1.80;99.90
28837;DHT22;50669;50.982;11.022;2023-02-15T04:23:30;-1.80;99.90
28837;DHT22;50669;50.982;11.022;2023-02-15T04:26:14;-1.80;99.90
28837;DHT22;50669;50.982;11.022;2023-02-15T04:28:42;-1.80;99.90
28837;DHT22;50669;50.982;11.022;2023-02-15T04:31:10;-1.80;99.90
28837;DHT22;50669;50.982;11.022;2023-02-15T04:33:36;-1.80;99.90
28837;DHT22;50669;50.982;11.022;2023-02-15T04:36:06;-1.70;99.90
28837;DHT22;50669;50.982;11.022;2023-02-15T04:38:34;-1.80;99.90
28837;DHT22;50669;50.982;11.022;2023-02-15T04:41:00;-1.80;99.90
28837;DHT22;50669;50.982;11.022;2023-02-15T04:43:26;-1.80;99.90
28837;DHT22;50669;50.982;11.022;2023-02-15T04:45:51;-1.80;99.90
28837;DHT22;50669;50.982;11.022;2023-02-15T04:48:17;-1.80;99.90
28837;DHT22;50669;50.982;11.022;2023-02-15T04:50:44;-1.80;99.90
28837;DHT22;50669;50.982;11.022;2023-02-15T04:53:12;-1.80;99.90
28837;DHT22;50669;50.982;11.022;2023-02-15T04:55:40;-1.80;99.90
28837;DHT22;50669;50.982;11.022;2023-02-15T04:58:06;-1.80;99.90
28837;DHT22;50669;50.982;11.022;2023-02-15T05:00:32;-1.80;99.90
28837;DHT22;50669;50.982;11.022;2023-02-15T05:02:57;-1.80;99.90
28837;DHT22;50669;50.982;11.022;2023-02-15T05:05:23;-1.80;99.90
28837;DHT22;50669;50.982;11.022;2023-02-15T05:07:49;-1.90;99.90
28837;DHT22;50669;50.982;11.022;2023-02-15T05:10:14;-1.90;99.90
28837;DHT22;50669;50.982;11.022;2023-02-15T05:12:40;-1.90;99.90
28837;DHT22;50669;50.982;11.022;2023-02-15T05:15:08;-2.00;99.90
28837;DHT22;50669;50.982;11.022;2023-02-15T05:17:34;-2.00;99.90
28837;DHT22;50669;50.982;11.022;2023-02-15T05:19:59;-2.00;99.90
28837;DHT22;50669;50.982;11.022;2023-02-15T05:22:25;-2.00;99.90
28837;DHT22;50669;50.982;11.022;2023-02-15T05:24:51;-2.00;99.90
28837;DHT22;50669;50.982;11.022;2023-02-15T05:27:35;-2.00;99.90
28837;DHT22;50669;50.982;11.022;2023-02-15T05:30:19;-2.10;99.90
28837;DHT22;50669;50.982;11.022;2023-02-15T05:32:44;-2.20;99.90
28837;DHT22;50669;50.982;11.022;2023-02-15T05:35:16;-2.20;99.90
28837;DHT22;50669;50.982;11.022;2023-02-15T05:37:44;-2.30;99.90
28837;DHT22;50669;50.982;11.022;2023-02-15T05:40:10;-2.30;99.90
28837;DHT22;50669;50.982;11.022;2023-02-15T05:42:36;-2.30;99.90
28837;DHT22;50669;50.982;11.022;2023-02-15T05:45:04;-2.30;99.90
28837;DHT22;50669;50.982;11.022;2023-02-15T05:47:33;-2.30;99.90
28837;DHT22;50669;50.982;11.022;2023-02-15T05:50:00;-2.40;99.90
28837;DHT22;50669;50.982;11.022;2023-02-15T05:52:26;-2.30;99.90
28837;DHT22;50669;50.982;11.022;2023-02-15T05:54:52;-2.30;99.90
28837;DHT22;50669;50.982;11.022;2023-02-15T05:57:17;-2.30;99.90
28837;DHT22;50669;50.982;11.022;2023-02-15T05:59:43;-2.30;99.90
28837;DHT22;50669;50.982;11.022;2023-02-15T06:02:09;-2.30;99.90
28837;DHT22;50669;50.982;11.022;2023-02-15T06:04:37;-2.30;99.90
28837;DHT22;50669;50.982;11.022;2023-02-15T06:07:04;-2.30;99.90
28837;DHT22;50669;50.982;11.022;2023-02-15T06:09:30;-2.30;99.90
28837;DHT22;50669;50.982;11.022;2023-02-15T06:12:00;-2.30;99.90
28837;DHT22;50669;50.982;11.022;2023-02-15T06:14:26;-2.30;99.90
28837;DHT22;50669;50.982;11.022;2023-02-15T06:16:51;-2.30;99.90
28837;DHT22;50669;50.982;11.022;2023-02-15T06:19:19;-2.30;99.90
28837;DHT22;50669;50.982;11.022;2023-02-15T06:21:46;-2.20;99.90
28837;DHT22;50669;50.982;11.022;2023-02-15T06:24:12;-2.20;99.90
28837;DHT22;50669;50.982;11.022;2023-02-15T06:26:38;-2.10;99.90
28837;DHT22;50669;50.982;11.022;2023-02-15T06:29:03;-2.20;99.90
28837;DHT22;50669;50.982;11.022;2023-02-15T06:31:32;-2.10;99.90
28837;DHT22;50669;50.982;11.022;2023-02-15T06:34:00;-2.20;99.90
28837;DHT22;50669;50.982;11.022;2023-02-15T06:36:31;-2.10;99.90
28837;DHT22;50669;50.982;11.022;2023-02-15T06:38:57;-2.00;99.90
28837;DHT22;50669;50.982;11.022;2023-02-15T06:41:25;-1.90;99.90
28837;DHT22;50669;50.982;11.022;2023-02-15T06:43:51;-1.90;99.90
28837;DHT22;50669;50.982;11.022;2023-02-15T06:46:17;-2.00;99.90
28837;DHT22;50669;50.982;11.022;2023-02-15T06:48:42;-2.00;99.90
28837;DHT22;50669;50.982;11.022;2023-02-15T06:51:08;-2.00;99.90
28837;DHT22;50669;50.982;11.022;2023-02-15T06:53:34;-1.90;99.90
28837;DHT22;50669;50.982;11.022;2023-02-15T06:56:05;-1.90;99.90
28837;DHT22;50669;50.982;11.022;2023-02-15T06:58:38;-1.90;99.90
28837;DHT22;50669;50.982;11.022;2023-02-15T07:01:04;-1.80;99.90
28837;DHT22;50669;50.982;11.022;2023-02-15T07:03:34;-1.80;99.90
28837;DHT22;50669;50.982;11.022;2023-02-15T07:06:04;-1.80;99.90
28837;DHT22;50669;50.982;11.022;2023-02-15T07:08:34;-1.90;99.90
28837;DHT22;50669;50.982;11.022;2023-02-15T07:11:00;-1.90;99.90
28837;DHT22;50669;50.982;11.022;2023-02-15T07:13:44;-2.00;99.90
28837;DHT22;50669;50.982;11.022;2023-02-15T07:16:10;-2.00;99.90
28837;DHT22;50669;50.982;11.022;2023-02-15T07:18:36;-2.10;99.90
28837;DHT22;50669;50.982;11.022;2023-02-15T07:21:04;-2.20;99.90
28837;DHT22;50669;50.982;11.022;2023-02-15T07:23:35;-2.30;99.90
28837;DHT22;50669;50.982;11.022;2023-02-15T07:26:01;-2.30;99.90
28837;DHT22;50669;50.982;11.022;2023-02-15T07:28:27;-2.30;99.90
28837;DHT22;50669;50.982;11.022;2023-02-15T07:30:53;-2.30;99.90
28837;DHT22;50669;50.982;11.022;2023-02-15T07:33:19;-2.20;99.90
28837;DHT22;50669;50.982;11.022;2023-02-15T07:35:57;-2.20;99.90
28837;DHT22;50669;50.982;11.022;2023-02-15T07:38:30;-2.30;99.90
28837;DHT22;50669;50.982;11.022;2023-02-15T07:41:02;-2.20;99.90
28837;DHT22;50669;50.982;11.022;2023-02-15T07:43:29;-2.20;99.90
28837;DHT22;50669;50.982;11.022;2023-02-15T07:45:59;-2.20;99.90
28837;DHT22;50669;50.982;11.022;2023-02-15T07:48:28;-2.20;99.90
28837;DHT22;50669;50.982;11.022;2023-02-15T07:50:54;-2.10;99.90
28837;DHT22;50669;50.982;11.022;2023-02-15T07:53:23;-2.10;99.90
28837;DHT22;50669;50.982;11.022;2023-02-15T07:55:49;-2.00;99.90
28837;DHT22;50669;50.982;11.022;2023-02-15T07:58:15;-1.90;99.90
28837;DHT22;50669;50.982;11.022;2023-02-15T08:00:42;-1.80;99.90
28837;DHT22;50669;50.982;11.022;2023-02-15T08:03:26;-1.80;99.90
28837;DHT22;50669;50.982;11.022;2023-02-15T08:05:56;-1.70;99.90
28837;DHT22;50669;50.982;11.022;2023-02-15T08:08:23;-1.60;99.90
28837;DHT22;50669;50.982;11.022;2023-02-15T08:13:55;-1.30;99.90
28837;DHT22;50669;50.982;11.022;2023-02-15T08:16:35;-1.40;99.90
28837;DHT22;50669;50.982;11.022;2023-02-15T08:19:06;-1.40;99.90
28837;DHT22;50669;50.982;11.022;2023-02-15T08:21:34;-1.20;99.90
28837;DHT22;50669;50.982;11.022;2023-02-15T08:24:00;-1.20;99.90
28837;DHT22;50669;50.982;11.022;2023-02-15T08:26:31;-1.10;99.90
28837;DHT22;50669;50.982;11.022;2023-02-15T08:28:58;-1.10;99.90
28837;DHT22;50669;50.982;11.022;2023-02-15T08:31:24;-1.00;99.90
28837;DHT22;50669;50.982;11.022;2023-02-15T08:33:54;-0.90;99.90
28837;DHT22;50669;50.982;11.022;2023-02-15T08:36:22;-0.80;99.90
28837;DHT22;50669;50.982;11.022;2023-02-15T08:38:48;-0.60;99.90
28837;DHT22;50669;50.982;11.022;2023-02-15T08:41:17;-0.60;99.90
28837;DHT22;50669;50.982;11.022;2023-02-15T08:43:48;-0.50;99.90
28837;DHT22;50669;50.982;11.022;2023-02-15T08:46:15;-0.40;99.90
28837;DHT22;50669;50.982;11.022;2023-02-15T08:48:44;-0.40;99.90
28837;DHT22;50669;50.982;11.022;2023-02-15T08:53:47;-0.40;99.90
28837;DHT22;50669;50.982;11.022;2023-02-15T08:56:18;-0.30;99.90
28837;DHT22;50669;50.982;11.022;2023-02-15T08:58:46;-0.30;99.90
28837;DHT22;50669;50.982;11.022;2023-02-15T09:01:17;-0.20;99.90
28837;DHT22;50669;50.982;11.022;2023-02-15T09:03:44;-0.20;99.90
28837;DHT22;50669;50.982;11.022;2023-02-15T09:06:11;-0.10;99.90
28837;DHT22;50669;50.982;11.022;2023-02-15T09:08:39;0.00;99.90
28837;DHT22;50669;50.982;11.022;2023-02-15T09:11:17;0.00;99.90
28837;DHT22;50669;50.982;11.022;2023-02-15T09:13:52;0.00;99.90
28837;DHT22;50669;50.982;11.022;2023-02-15T09:16:23;0.00;99.90
28837;DHT22;50669;50.982;11.022;2023-02-15T09:18:50;0.00;99.90
28837;DHT22;50669;50.982;11.022;2023-02-15T09:21:20;0.00;99.90
28837;DHT22;50669;50.982;11.022;2023-02-15T09:23:48;0.10;99.90
28837;DHT22;50669;50.982;11.022;2023-02-15T09:26:20;0.10;99.90
28837;DHT22;50669;50.982;11.022;2023-02-15T09:28:47;0.20;99.90
28837;DHT22;50669;50.982;11.022;2023-02-15T09:31:17;0.30;99.90
28837;DHT22;50669;50.982;11.022;2023-02-15T09:33:46;0.20;99.90
28837;DHT22;50669;50.982;11.022;2023-02-15T09:39:03;0.60;99.90
28837;DHT22;50669;50.982;11.022;2023-02-15T10:01:07;1.20;99.90
28837;DHT22;50669;50.982;11.022;2023-02-15T10:20:13;1.60;99.90
28837;DHT22;50669;50.982;11.022;2023-02-15T10:23:18;1.70;99.90
28837;DHT22;50669;50.982;11.022;2023-02-15T10:25:57;1.80;99.90
28837;DHT22;50669;50.982;11.022;2023-02-15T10:31:28;2.00;99.90
28837;DHT22;50669;50.982;11.022;2023-02-15T10:40:11;2.50;99.90
28837;DHT22;50669;50.982;11.022;2023-02-15T10:48:53;3.80;99.90
28837;DHT22;50669;50.982;11.022;2023-02-15T10:54:39;6.00;99.90
28837;DHT22;50669;50.982;11.022;2023-02-15T10:57:30;6.90;99.90
28837;DHT22;50669;50.982;11.022;2023-02-15T11:00:07;7.50;99.90
28837;DHT22;50669;50.982;11.022;2023-02-15T11:08:16;9.00;99.90
28837;DHT22;50669;50.982;11.022;2023-02-15T11:10:48;9.40;99.90
28837;DHT22;50669;50.982;11.022;2023-02-15T11:13:18;9.90;99.90
28837;DHT22;50669;50.982;11.022;2023-02-15T11:18:36;11.00;99.90
28837;DHT22;50669;50.982;11.022;2023-02-15T11:21:48;11.70;99.90
28837;DHT22;50669;50.982;11.022;2023-02-15T11:23:56;12.40;99.90
28837;DHT22;50669;50.982;11.022;2023-02-15T11:26:33;13.50;99.90
28837;DHT22;50669;50.982;11.022;2023-02-15T11:29:02;14.60;99.90
28837;DHT22;50669;50.982;11.022;2023-02-15T11:31:43;15.70;99.90
28837;DHT22;50669;50.982;11.022;2023-02-15T11:34:26;16.20;99.90
28837;DHT22;50669;50.982;11.022;2023-02-15T11:36:54;16.40;99.90
28837;DHT22;50669;50.982;11.022;2023-02-15T11:39:24;16.00;99.40
28837;DHT22;50669;50.982;11.022;2023-02-15T11:41:55;14.80;99.70
28837;DHT22;50669;50.982;11.022;2023-02-15T11:44:41;13.50;99.90
28837;DHT22;50669;50.982;11.022;2023-02-15T11:47:13;12.70;99.90
28837;DHT22;50669;50.982;11.022;2023-02-15T11:49:39;11.90;99.90
28837;DHT22;50669;50.982;11.022;2023-02-15T11:52:10;11.30;99.90
28837;DHT22;50669;50.982;11.022;2023-02-15T11:54:42;11.10;99.90
28837;DHT22;50669;50.982;11.022;2023-02-15T12:02:33;12.70;99.90
28837;DHT22;50669;50.982;11.022;2023-02-15T12:05:07;12.40;99.90
28837;DHT22;50669;50.982;11.022;2023-02-15T12:07:37;12.40;99.90
28837;DHT22;50669;50.982;11.022;2023-02-15T12:12:42;12.70;99.90
28837;DHT22;50669;50.982;11.022;2023-02-15T12:15:11;12.70;99.90
28837;DHT22;50669;50.982;11.022;2023-02-15T12:17:49;12.40;99.90
28837;DHT22;50669;50.982;11.022;2023-02-15T12:23:14;13.50;99.90
28837;DHT22;50669;50.982;11.022;2023-02-15T12:25:49;15.00;99.90
28837;DHT22;50669;50.982;11.022;2023-02-15T12:31:00;16.80;99.90
28837;DHT22;50669;50.982;11.022;2023-02-15T12:33:39;16.80;99.60
28837;DHT22;50669;50.982;11.022;2023-02-15T12:38:40;16.60;99.20
28837;DHT22;50669;50.982;11.022;2023-02-15T12:41:22;16.90;98.80
28837;DHT22;50669;50.982;11.022;2023-02-15T12:44:22;18.10;98.80
28837;DHT22;50669;50.982;11.022;2023-02-15T12:47:18;18.40;94.90
28837;DHT22;50669;50.982;11.022;2023-02-15T12:50:10;18.70;94.50
28837;DHT22;50669;50.982;11.022;2023-02-15T12:52:43;19.80;93.00
28837;DHT22;50669;50.982;11.022;2023-02-15T12:55:23;21.10;93.20
28837;DHT22;50669;50.982;11.022;2023-02-15T12:57:49;21.70;84.70
28837;DHT22;50669;50.982;11.022;2023-02-15T13:00:32;22.60;83.80
28837;DHT22;50669;50.982;11.022;2023-02-15T13:02:59;22.60;79.80
28837;DHT22;50669;50.982;11.022;2023-02-15T13:05:37;22.10;82.70
28837;DHT22;50669;50.982;11.022;2023-02-15T13:08:15;23.30;82.50
28837;DHT22;50669;50.982;11.022;2023-02-15T13:11:07;24.70;74.90
28837;DHT22;50669;50.982;11.022;2023-02-15T13:16:24;23.00;73.70
28837;DHT22;50669;50.982;11.022;2023-02-15T13:18:53;22.90;73.80
28837;DHT22;50669;50.982;11.022;2023-02-15T13:21:26;22.90;77.60
28837;DHT22;50669;50.982;11.022;2023-02-15T13:24:11;22.60;71.50
28837;DHT22;50669;50.982;11.022;2023-02-15T13:26:42;20.90;77.20
28837;DHT22;50669;50.982;11.022;2023-02-15T13:29:25;21.50;79.50
28837;DHT22;50669;50.982;11.022;2023-02-15T13:31:52;22.40;75.90
28837;DHT22;50669;50.982;11.022;2023-02-15T13:34:36;21.00;79.30
28837;DHT22;50669;50.982;11.022;2023-02-15T13:37:10;21.20;76.30
28837;DHT22;50669;50.982;11.022;2023-02-15T13:40:07;20.20;77.90
28837;DHT22;50669;50.982;11.022;2023-02-15T13:45:30;18.40;86.00
28837;DHT22;50669;50.982;11.022;2023-02-15T13:48:23;17.50;88.20
28837;DHT22;50669;50.982;11.022;2023-02-15T13:54:00;15.70;91.30
28837;DHT22;50669;50.982;11.022;2023-02-15T13:59:36;14.20;94.90
28837;DHT22;50669;50.982;11.022;2023-02-15T14:07:33;13.10;96.10
28837;DHT22;50669;50.982;11.022;2023-02-15T14:10:27;13.00;96.90
28837;DHT22;50669;50.982;11.022;2023-02-15T14:18:10;12.70;98.30
28837;DHT22;50669;50.982;11.022;2023-02-15T14:31:41;12.10;99.90
28837;DHT22;50669;50.982;11.022;2023-02-15T14:34:24;12.00;99.90
28837;DHT22;50669;50.982;11.022;2023-02-15T14:36:52;12.00;99.80
28837;DHT22;50669;50.982;11.022;2023-02-15T14:39:40;12.00;99.90
28837;DHT22;50669;50.982;11.022;2023-02-15T14:42:49;11.90;99.90
28837;DHT22;50669;50.982;11.022;2023-02-15T14:45:29;11.80;99.90
28837;DHT22;50669;50.982;11.022;2023-02-15T14:48:07;11.80;99.90
28837;DHT22;50669;50.982;11.022;2023-02-15T14:50:46;11.80;99.90
28837;DHT22;50669;50.982;11.022;2023-02-15T14:58:37;11.50;99.90
28837;DHT22;50669;50.982;11.022;2023-02-15T15:01:08;11.40;99.90
28837;DHT22;50669;50.982;11.022;2023-02-15T15:03:46;11.30;99.90
28837;DHT22;50669;50.982;11.022;2023-02-15T15:06:26;11.20;99.90
28837;DHT22;50669;50.982;11.022;2023-02-15T15:09:00;11.10;99.90
28837;DHT22;50669;50.982;11.022;2023-02-15T15:14:01;11.00;99.90
28837;DHT22;50669;50.982;11.022;2023-02-15T15:18:54;10.90;99.90
28837;DHT22;50669;50.982;11.022;2023-02-15T15:27:43;10.50;99.90
28837;DHT22;50669;50.982;11.022;2023-02-15T15:49:48;9.90;99.90
28837;DHT22;50669;50.982;11.022;2023-02-15T15:52:17;9.80;99.90
28837;DHT22;50669;50.982;11.022;2023-02-15T15:54:48;9.70;99.90
28837;DHT22;50669;50.982;11.022;2023-02-15T15:59:52;9.60;99.90
28837;DHT22;50669;50.982;11.022;2023-02-15T16:02:21;9.50;99.90
28837;DHT22;50669;50.982;11.022;2023-02-15T16:04:48;9.50;99.90
28837;DHT22;50669;50.982;11.022;2023-02-15T16:09:56;9.30;99.90
28837;DHT22;50669;50.982;11.022;2023-02-15T16:12:23;9.10;99.90
28837;DHT22;50669;50.982;11.022;2023-02-15T16:14:49;9.00;99.90
28837;DHT22;50669;50.982;11.022;2023-02-15T16:17:23;8.90;99.90
28837;DHT22;50669;50.982;11.022;2023-02-15T16:19:50;8.80;99.90
28837;DHT22;50669;50.982;11.022;2023-02-15T16:22:21;8.80;99.90
28837;DHT22;50669;50.982;11.022;2023-02-15T16:27:50;8.60;99.90
28837;DHT22;50669;50.982;11.022;2023-02-15T16:30:32;8.60;99.90
28837;DHT22;50669;50.982;11.022;2023-02-15T16:33:16;8.50;99.90
28837;DHT22;50669;50.982;11.022;2023-02-15T16:35:57;8.40;99.90
28837;DHT22;50669;50.982;11.022;2023-02-15T16:41:28;8.20;99.90
28837;DHT22;50669;50.982;11.022;2023-02-15T16:43:56;8.00;99.90
28837;DHT22;50669;50.982;11.022;2023-02-15T16:46:30;8.00;99.90
28837;DHT22;50669;50.982;11.022;2023-02-15T16:49:01;7.90;99.90
28837;DHT22;50669;50.982;11.022;2023-02-15T16:51:31;7.90;99.90
28837;DHT22;50669;50.982;11.022;2023-02-15T16:54:07;7.90;99.90
28837;DHT22;50669;50.982;11.022;2023-02-15T16:56:34;7.80;99.90
28837;DHT22;50669;50.982;11.022;2023-02-15T16:59:02;7.80;99.90
28837;DHT22;50669;50.982;11.022;2023-02-15T17:01:31;7.80;99.90
28837;DHT22;50669;50.982;11.022;2023-02-15T17:07:05;7.60;99.90
28837;DHT22;50669;50.982;11.022;2023-02-15T17:09:34;7.50;99.90
28837;DHT22;50669;50.982;11.022;2023-02-15T17:12:00;7.40;99.90
28837;DHT22;50669;50.982;11.022;2023-02-15T17:14:31;7.30;99.90
28837;DHT22;50669;50.982;11.022;2023-02-15T17:17:06;7.10;99.90
28837;DHT22;50669;50.982;11.022;2023-02-15T17:19:53;7.20;99.90
28837;DHT22;50669;50.982;11.022;2023-02-15T17:22:25;7.10;99.90
28837;DHT22;50669;50.982;11.022;2023-02-15T17:25:03;7.00;99.90
28837;DHT22;50669;50.982;11.022;2023-02-15T17:27:29;6.90;99.90
28837;DHT22;50669;50.982;11.022;2023-02-15T17:30:01;6.80;99.90
28837;DHT22;50669;50.982;11.022;2023-02-15T17:32:29;6.70;99.90
28837;DHT22;50669;50.982;11.022;2023-02-15T17:35:23;6.60;99.90
28837;DHT22;50669;50.982;11.022;2023-02-15T17:38:02;6.40;99.90
28837;DHT22;50669;50.982;11.022;2023-02-15T17:40:31;6.30;99.90
28837;DHT22;50669;50.982;11.022;2023-02-15T17:42:57;6.20;99.90
28837;DHT22;50669;50.982;11.022;2023-02-15T17:45:26;6.10;99.90
28837;DHT22;50669;50.982;11.022;2023-02-15T17:47:59;6.10;99.90
28837;DHT22;50669;50.982;11.022;2023-02-15T17:50:29;6.00;99.90
28837;DHT22;50669;50.982;11.022;2023-02-15T17:53:01;6.00;99.90
28837;DHT22;50669;50.982;11.022;2023-02-15T17:55:27;5.90;99.90
28837;DHT22;50669;50.982;11.022;2023-02-15T17:58:11;5.90;99.90
28837;DHT22;50669;50.982;11.022;2023-02-15T18:00:45;5.80;99.90
28837;DHT22;50669;50.982;11.022;2023-02-15T18:06:21;5.80;99.90
28837;DHT22;50669;50.982;11.022;2023-02-15T18:09:07;5.70;99.90
28837;DHT22;50669;50.982;11.022;2023-02-15T18:11:52;5.60;99.90
28837;DHT22;50669;50.982;11.022;2023-02-15T18:14:18;5.50;99.90
28837;DHT22;50669;50.982;11.022;2023-02-15T18:16:44;5.50;99.90
28837;DHT22;50669;50.982;11.022;2023-02-15T18:19:16;5.50;99.90
28837;DHT22;50669;50.982;11.022;2023-02-15T18:21:45;5.50;99.90
28837;DHT22;50669;50.982;11.022;2023-02-15T18:24:16;5.40;99.90
28837;DHT22;50669;50.982;11.022;2023-02-15T18:26:43;5.40;99.90
28837;DHT22;50669;50.982;11.022;2023-02-15T18:29:09;5.30;99.90
28837;DHT22;50669;50.982;11.022;2023-02-15T18:31:34;5.30;99.90
28837;DHT22;50669;50.982;11.022;2023-02-15T18:34:00;5.30;99.90
28837;DHT22;50669;50.982;11.022;2023-02-15T18:36:39;5.20;99.90
28837;DHT22;50669;50.982;11.022;2023-02-15T18:39:22;5.20;99.90
28837;DHT22;50669;50.982;11.022;2023-02-15T18:41:49;5.10;99.90
28837;DHT22;50669;50.982;11.022;2023-02-15T18:44:17;5.10;99.90
28837;DHT22;50669;50.982;11.022;2023-02-15T18:46:42;5.10;99.90
28837;DHT22;50669;50.982;11.022;2023-02-15T18:49:08;5.10;99.90
28837;DHT22;50669;50.982;11.022;2023-02-15T18:51:34;5.10;99.90
28837;DHT22;50669;50.982;11.022;2023-02-15T18:54:05;5.00;99.90
28837;DHT22;50669;50.982;11.022;2023-02-15T18:56:38;5.00;99.90
28837;DHT22;50669;50.982;11.022;2023-02-15T18:59:14;4.90;99.90
28837;DHT22;50669;50.982;11.022;2023-02-15T19:01:43;4.80;99.90
28837;DHT22;50669;50.982;11.022;2023-02-15T19:04:08;4.80;99.90
28837;DHT22;50669;50.982;11.022;2023-02-15T19:06:34;4.80;99.90
28837;DHT22;50669;50.982;11.022;2023-02-15T19:09:01;4.80;99.90
28837;DHT22;50669;50.982;11.022;2023-02-15T19:11:29;4.70;99.90
28837;DHT22;50669;50.982;11.022;2023-02-15T19:13:55;4.70;99.90
28837;DHT22;50669;50.982;11.022;2023-02-15T19:16:34;4.70;99.90
28837;DHT22;50669;50.982;11.022;2023-02-15T19:19:02;4.80;99.90